sensor_id;sensor_type;location;lat;lon;timestamp;P1;durP1;ratioP1;P2;durP2;ratioP2
23406;SDS011;11876;53.438;18.942;2024-02-14T00:02:33;22.80;;;15.73;;
23406;SDS011;11876;53.438;18.942;2024-02-14T00:05:37;27.35;;;16.35;;
23406;SDS011;11876;53.438;18.942;2024-02-14T00:08:43;24.83;;;16.23;;
23406;SDS011;11876;53.438;18.942;2024-02-14T00:11:49;25.35;;;15.02;;
23406;SDS011;11876;53.438;18.942;2024-02-14T00:14:56;25.58;;;15.85;;
23406;SDS011;11876;53.438;18.942;2024-02-14T00:18:00;26.48;;;15.32;;
23406;SDS011;11876;53.438;18.942;2024-02-14T00:21:07;25.33;;;16.73;;
23406;SDS011;11876;53.438;18.942;2024-02-14T00:27:17;27.15;;;16.90;;
23406;SDS011;11876;53.438;18.942;2024-02-14T00:30:22;24.08;;;14.63;;
23406;SDS011;11876;53.438;18.942;2024-02-14T00:33:28;21.92;;;13.45;;
23406;SDS011;11876;53.438;18.942;2024-02-14T00:36:31;20.08;;;13.30;;
23406;SDS011;11876;53.438;18.942;2024-02-14T00:39:35;20.85;;;12.60;;
23406;SDS011;11876;53.438;18.942;2024-02-14T00:42:38;22.58;;;13.77;;
23406;SDS011;11876;53.438;18.942;2024-02-14T00:45:44;21.40;;;13.52;;
23406;SDS011;11876;53.438;18.942;2024-02-14T00:48:49;21.63;;;14.18;;
23406;SDS011;11876;53.438;18.942;2024-02-14T00:51:57;22.58;;;12.73;;
23406;SDS011;11876;53.438;18.942;2024-02-14T01:01:09;20.25;;;13.75;;
23406;SDS011;11876;53.438;18.942;2024-02-14T01:04:16;21.02;;;14.45;;
23406;SDS011;11876;53.438;18.942;2024-02-14T01:07:23;25.58;;;15.55;;
23406;SDS011;11876;53.438;18.942;2024-02-14T01:10:28;29.65;;;17.30;;
23406;SDS011;11876;53.438;18.942;2024-02-14T01:13:31;28.75;;;18.15;;
23406;SDS011;11876;53.438;18.942;2024-02-14T01:16:43;45.38;;;28.02;;
23406;SDS011;11876;53.438;18.942;2024-02-14T01:19:50;50.30;;;27.33;;
23406;SDS011;11876;53.438;18.942;2024-02-14T01:23:10;54.50;;;32.65;;
23406;SDS011;11876;53.438;18.942;2024-02-14T01:26:17;40.15;;;22.85;;
23406;SDS011;11876;53.438;18.942;2024-02-14T01:29:24;47.40;;;23.42;;
23406;SDS011;11876;53.438;18.942;2024-02-14T01:32:28;43.45;;;21.75;;
23406;SDS011;11876;53.438;18.942;2024-02-14T01:35:34;39.22;;;20.35;;
23406;SDS011;11876;53.438;18.942;2024-02-14T01:38:42;36.38;;;21.13;;
23406;SDS011;11876;53.438;18.942;2024-02-14T01:41:47;33.78;;;19.55;;
23406;SDS011;11876;53.438;18.942;2024-02-14T01:44:52;30.58;;;15.55;;
23406;SDS011;11876;53.438;18.942;2024-02-14T01:48:02;27.38;;;16.73;;
23406;SDS011;11876;53.438;18.942;2024-02-14T01:51:11;31.95;;;18.35;;
23406;SDS011;11876;53.438;18.942;2024-02-14T01:54:17;43.65;;;27.63;;
23406;SDS011;11876;53.438;18.942;2024-02-14T01:57:22;51.85;;;29.85;;
23406;SDS011;11876;53.438;18.942;2024-02-14T02:00:29;35.55;;;20.83;;
23406;SDS011;11876;53.438;18.942;2024-02-14T02:03:41;28.90;;;18.63;;
23406;SDS011;11876;53.438;18.942;2024-02-14T02:06:44;26.67;;;17.83;;
23406;SDS011;11876;53.438;18.942;2024-02-14T02:09:51;24.92;;;17.10;;
23406;SDS011;11876;53.438;18.942;2024-02-14T02:12:59;24.52;;;16.45;;
23406;SDS011;11876;53.438;18.942;2024-02-14T02:16:07;27.63;;;15.93;;
23406;SDS011;11876;53.438;18.942;2024-02-14T02:19:14;27.15;;;17.13;;
23406;SDS011;11876;53.438;18.942;2024-02-14T02:22:19;26.83;;;17.65;;
23406;SDS011;11876;53.438;18.942;2024-02-14T02:25:28;32.08;;;17.75;;
23406;SDS011;11876;53.438;18.942;2024-02-14T02:28:32;33.03;;;20.73;;
23406;SDS011;11876;53.438;18.942;2024-02-14T02:31:37;29.08;;;19.25;;
23406;SDS011;11876;53.438;18.942;2024-02-14T02:34:40;32.47;;;23.33;;
23406;SDS011;11876;53.438;18.942;2024-02-14T02:37:48;38.65;;;23.55;;
23406;SDS011;11876;53.438;18.942;2024-02-14T02:40:56;38.22;;;22.63;;
23406;SDS011;11876;53.438;18.942;2024-02-14T02:44:07;36.80;;;19.48;;
23406;SDS011;11876;53.438;18.942;2024-02-14T02:47:14;30.63;;;19.95;;
23406;SDS011;11876;53.438;18.942;2024-02-14T02:50:19;24.65;;;17.17;;
23406;SDS011;11876;53.438;18.942;2024-02-14T02:53:23;26.42;;;16.70;;
23406;SDS011;11876;53.438;18.942;2024-02-14T02:56:26;25.55;;;15.85;;
23406;SDS011;11876;53.438;18.942;2024-02-14T02:59:35;25.70;;;16.67;;
23406;SDS011;11876;53.438;18.942;2024-02-14T03:02:40;25.95;;;18.80;;
23406;SDS011;11876;53.438;18.942;2024-02-14T03:05:48;25.33;;;16.50;;
23406;SDS011;11876;53.438;18.942;2024-02-14T03:08:53;25.35;;;15.38;;
23406;SDS011;11876;53.438;18.942;2024-02-14T03:11:59;26.55;;;17.35;;
23406;SDS011;11876;53.438;18.942;2024-02-14T03:15:03;20.83;;;14.02;;
23406;SDS011;11876;53.438;18.942;2024-02-14T03:18:08;24.67;;;15.68;;
23406;SDS011;11876;53.438;18.942;2024-02-14T03:21:14;24.38;;;15.98;;
23406;SDS011;11876;53.438;18.942;2024-02-14T03:24:16;29.38;;;16.60;;
23406;SDS011;11876;53.438;18.942;2024-02-14T03:27:18;27.75;;;16.98;;
23406;SDS011;11876;53.438;18.942;2024-02-14T03:30:21;27.00;;;17.63;;
23406;SDS011;11876;53.438;18.942;2024-02-14T03:33:24;23.77;;;15.85;;
23406;SDS011;11876;53.438;18.942;2024-02-14T03:36:27;23.88;;;15.05;;
23406;SDS011;11876;53.438;18.942;2024-02-14T03:39:37;27.30;;;16.88;;
23406;SDS011;11876;53.438;18.942;2024-02-14T03:42:54;24.98;;;16.30;;
23406;SDS011;11876;53.438;18.942;2024-02-14T03:45:56;21.67;;;16.17;;
23406;SDS011;11876;53.438;18.942;2024-02-14T03:49:01;25.20;;;16.90;;
23406;SDS011;11876;53.438;18.942;2024-02-14T03:52:07;27.98;;;18.73;;
23406;SDS011;11876;53.438;18.942;2024-02-14T03:55:14;27.85;;;17.38;;
23406;SDS011;11876;53.438;18.942;2024-02-14T03:58:20;33.47;;;19.17;;
23406;SDS011;11876;53.438;18.942;2024-02-14T04:01:27;24.88;;;17.58;;
23406;SDS011;11876;53.438;18.942;2024-02-14T04:04:35;29.02;;;17.77;;
23406;SDS011;11876;53.438;18.942;2024-02-14T04:07:43;25.73;;;16.67;;
23406;SDS011;11876;53.438;18.942;2024-02-14T04:10:54;25.77;;;18.40;;
23406;SDS011;11876;53.438;18.942;2024-02-14T04:13:59;19.40;;;12.55;;
23406;SDS011;11876;53.438;18.942;2024-02-14T04:17:04;26.45;;;17.17;;
23406;SDS011;11876;53.438;18.942;2024-02-14T04:20:12;32.30;;;19.40;;
23406;SDS011;11876;53.438;18.942;2024-02-14T04:23:22;33.88;;;19.02;;
23406;SDS011;11876;53.438;18.942;2024-02-14T04:26:30;32.08;;;18.73;;
23406;SDS011;11876;53.438;18.942;2024-02-14T04:29:37;31.30;;;20.20;;
23406;SDS011;11876;53.438;18.942;2024-02-14T04:32:41;31.65;;;20.75;;
23406;SDS011;11876;53.438;18.942;2024-02-14T04:35:46;27.42;;;19.30;;
23406;SDS011;11876;53.438;18.942;2024-02-14T04:41:55;33.95;;;19.00;;
23406;SDS011;11876;53.438;18.942;2024-02-14T04:45:04;28.35;;;18.00;;
23406;SDS011;11876;53.438;18.942;2024-02-14T04:48:12;29.63;;;19.17;;
23406;SDS011;11876;53.438;18.942;2024-02-14T04:51:18;29.95;;;18.85;;
23406;SDS011;11876;53.438;18.942;2024-02-14T04:54:26;30.45;;;20.00;;
23406;SDS011;11876;53.438;18.942;2024-02-14T04:57:34;27.60;;;19.13;;
23406;SDS011;11876;53.438;18.942;2024-02-14T05:00:41;25.45;;;18.15;;
23406;SDS011;11876;53.438;18.942;2024-02-14T05:03:51;30.52;;;19.75;;
23406;SDS011;11876;53.438;18.942;2024-02-14T05:07:02;25.80;;;19.00;;
23406;SDS011;11876;53.438;18.942;2024-02-14T05:10:09;27.67;;;18.85;;
23406;SDS011;11876;53.438;18.942;2024-02-14T05:13:17;25.85;;;17.92;;
23406;SDS011;11876;53.438;18.942;2024-02-14T05:16:20;36.05;;;21.52;;
23406;SDS011;11876;53.438;18.942;2024-02-14T05:19:24;29.27;;;19.55;;
23406;SDS011;11876;53.438;18.942;2024-02-14T05:22:29;29.88;;;20.95;;
23406;SDS011;11876;53.438;18.942;2024-02-14T05:25:33;28.70;;;19.73;;
23406;SDS011;11876;53.438;18.942;2024-02-14T05:28:39;32.75;;;20.48;;
23406;SDS011;11876;53.438;18.942;2024-02-14T05:31:46;30.10;;;19.80;;
23406;SDS011;11876;53.438;18.942;2024-02-14T05:34:54;29.80;;;19.65;;
23406;SDS011;11876;53.438;18.942;2024-02-14T05:38:03;30.67;;;18.65;;
23406;SDS011;11876;53.438;18.942;2024-02-14T05:41:21;31.20;;;20.17;;
23406;SDS011;11876;53.438;18.942;2024-02-14T05:44:30;29.77;;;18.80;;
23406;SDS011;11876;53.438;18.942;2024-02-14T05:47:36;30.58;;;21.15;;
23406;SDS011;11876;53.438;18.942;2024-02-14T05:50:44;30.13;;;19.40;;
23406;SDS011;11876;53.438;18.942;2024-02-14T05:53:50;33.20;;;20.15;;
23406;SDS011;11876;53.438;18.942;2024-02-14T05:56:58;34.00;;;22.73;;
23406;SDS011;11876;53.438;18.942;2024-02-14T06:00:04;33.47;;;22.40;;
23406;SDS011;11876;53.438;18.942;2024-02-14T06:03:13;31.60;;;21.83;;
23406;SDS011;11876;53.438;18.942;2024-02-14T06:06:20;33.85;;;19.02;;
23406;SDS011;11876;53.438;18.942;2024-02-14T06:09:28;29.92;;;19.33;;
23406;SDS011;11876;53.438;18.942;2024-02-14T06:12:34;35.70;;;20.35;;
23406;SDS011;11876;53.438;18.942;2024-02-14T06:15:39;32.28;;;20.95;;
23406;SDS011;11876;53.438;18.942;2024-02-14T06:18:44;33.42;;;21.92;;
23406;SDS011;11876;53.438;18.942;2024-02-14T06:21:51;30.20;;;19.58;;
23406;SDS011;11876;53.438;18.942;2024-02-14T06:24:56;34.33;;;21.90;;
23406;SDS011;11876;53.438;18.942;2024-02-14T06:28:00;33.80;;;20.25;;
23406;SDS011;11876;53.438;18.942;2024-02-14T06:31:04;36.20;;;23.77;;
23406;SDS011;11876;53.438;18.942;2024-02-14T06:34:10;34.50;;;21.52;;
23406;SDS011;11876;53.438;18.942;2024-02-14T06:37:14;33.65;;;22.90;;
23406;SDS011;11876;53.438;18.942;2024-02-14T06:40:17;34.15;;;22.63;;
23406;SDS011;11876;53.438;18.942;2024-02-14T06:43:20;34.38;;;22.85;;
23406;SDS011;11876;53.438;18.942;2024-02-14T06:46:23;37.95;;;25.50;;
23406;SDS011;11876;53.438;18.942;2024-02-14T06:49:32;41.25;;;29.25;;
23406;SDS011;11876;53.438;18.942;2024-02-14T06:52:35;46.47;;;31.40;;
23406;SDS011;11876;53.438;18.942;2024-02-14T06:55:38;41.92;;;30.85;;
23406;SDS011;11876;53.438;18.942;2024-02-14T06:58:51;39.80;;;28.08;;
23406;SDS011;11876;53.438;18.942;2024-02-14T07:02:02;41.75;;;26.58;;
23406;SDS011;11876;53.438;18.942;2024-02-14T07:05:14;40.15;;;27.90;;
23406;SDS011;11876;53.438;18.942;2024-02-14T07:08:19;36.08;;;27.05;;
23406;SDS011;11876;53.438;18.942;2024-02-14T07:11:22;33.90;;;25.15;;
23406;SDS011;11876;53.438;18.942;2024-02-14T07:14:31;45.22;;;25.08;;
23406;SDS011;11876;53.438;18.942;2024-02-14T07:17:34;37.10;;;21.88;;
23406;SDS011;11876;53.438;18.942;2024-02-14T07:20:41;38.50;;;24.13;;
23406;SDS011;11876;53.438;18.942;2024-02-14T07:23:48;42.83;;;26.38;;
23406;SDS011;11876;53.438;18.942;2024-02-14T07:26:51;34.03;;;24.08;;
23406;SDS011;11876;53.438;18.942;2024-02-14T07:29:57;33.63;;;23.20;;
23406;SDS011;11876;53.438;18.942;2024-02-14T07:33:03;37.45;;;21.65;;
23406;SDS011;11876;53.438;18.942;2024-02-14T07:36:08;33.22;;;22.67;;
23406;SDS011;11876;53.438;18.942;2024-02-14T07:39:12;37.40;;;24.38;;
23406;SDS011;11876;53.438;18.942;2024-02-14T07:42:16;32.58;;;22.45;;
23406;SDS011;11876;53.438;18.942;2024-02-14T07:45:20;34.80;;;22.52;;
23406;SDS011;11876;53.438;18.942;2024-02-14T07:48:24;33.67;;;22.15;;
23406;SDS011;11876;53.438;18.942;2024-02-14T07:51:27;29.30;;;17.53;;
23406;SDS011;11876;53.438;18.942;2024-02-14T07:54:32;36.17;;;24.00;;
23406;SDS011;11876;53.438;18.942;2024-02-14T07:57:38;43.90;;;28.35;;
23406;SDS011;11876;53.438;18.942;2024-02-14T08:00:45;44.35;;;31.27;;
23406;SDS011;11876;53.438;18.942;2024-02-14T08:03:51;56.03;;;37.70;;
23406;SDS011;11876;53.438;18.942;2024-02-14T08:06:54;51.30;;;37.38;;
23406;SDS011;11876;53.438;18.942;2024-02-14T08:10:00;42.08;;;26.75;;
23406;SDS011;11876;53.438;18.942;2024-02-14T08:13:08;36.65;;;26.50;;
23406;SDS011;11876;53.438;18.942;2024-02-14T08:16:20;39.40;;;25.58;;
23406;SDS011;11876;53.438;18.942;2024-02-14T08:19:26;34.20;;;24.02;;
23406;SDS011;11876;53.438;18.942;2024-02-14T08:22:33;32.10;;;24.45;;
23406;SDS011;11876;53.438;18.942;2024-02-14T08:25:43;36.42;;;24.40;;
23406;SDS011;11876;53.438;18.942;2024-02-14T08:28:50;32.72;;;20.48;;
23406;SDS011;11876;53.438;18.942;2024-02-14T08:32:07;38.30;;;27.83;;
23406;SDS011;11876;53.438;18.942;2024-02-14T08:35:10;62.58;;;38.65;;
23406;SDS011;11876;53.438;18.942;2024-02-14T08:38:16;39.67;;;24.60;;
23406;SDS011;11876;53.438;18.942;2024-02-14T08:41:19;41.42;;;26.95;;
23406;SDS011;11876;53.438;18.942;2024-02-14T08:44:25;40.20;;;23.83;;
23406;SDS011;11876;53.438;18.942;2024-02-14T08:47:28;46.83;;;30.97;;
23406;SDS011;11876;53.438;18.942;2024-02-14T08:50:31;25.63;;;17.23;;
23406;SDS011;11876;53.438;18.942;2024-02-14T08:53:37;30.40;;;20.85;;
23406;SDS011;11876;53.438;18.942;2024-02-14T08:56:45;41.47;;;24.92;;
23406;SDS011;11876;53.438;18.942;2024-02-14T08:59:50;41.65;;;25.67;;
23406;SDS011;11876;53.438;18.942;2024-02-14T09:02:53;28.30;;;21.17;;
23406;SDS011;11876;53.438;18.942;2024-02-14T09:05:58;30.85;;;20.45;;
23406;SDS011;11876;53.438;18.942;2024-02-14T09:09:14;31.63;;;19.95;;
23406;SDS011;11876;53.438;18.942;2024-02-14T09:12:19;40.13;;;22.83;;
23406;SDS011;11876;53.438;18.942;2024-02-14T09:15:26;30.52;;;22.15;;
23406;SDS011;11876;53.438;18.942;2024-02-14T09:18:30;28.52;;;21.13;;
23406;SDS011;11876;53.438;18.942;2024-02-14T09:21:36;29.50;;;21.08;;
23406;SDS011;11876;53.438;18.942;2024-02-14T09:24:50;23.63;;;15.02;;
23406;SDS011;11876;53.438;18.942;2024-02-14T09:27:55;32.55;;;22.95;;
23406;SDS011;11876;53.438;18.942;2024-02-14T09:31:17;37.58;;;23.17;;
23406;SDS011;11876;53.438;18.942;2024-02-14T09:34:22;42.20;;;26.35;;
23406;SDS011;11876;53.438;18.942;2024-02-14T09:37:28;24.40;;;18.08;;
23406;SDS011;11876;53.438;18.942;2024-02-14T09:40:30;25.50;;;18.48;;
23406;SDS011;11876;53.438;18.942;2024-02-14T09:43:38;29.88;;;20.30;;
23406;SDS011;11876;53.438;18.942;2024-02-14T09:46:44;27.38;;;18.60;;
23406;SDS011;11876;53.438;18.942;2024-02-14T09:49:48;27.40;;;18.50;;
23406;SDS011;11876;53.438;18.942;2024-02-14T09:52:51;23.75;;;16.98;;
23406;SDS011;11876;53.438;18.942;2024-02-14T09:55:53;24.50;;;17.10;;
23406;SDS011;11876;53.438;18.942;2024-02-14T09:58:57;24.83;;;17.67;;
23406;SDS011;11876;53.438;18.942;2024-02-14T10:02:04;23.58;;;16.23;;
23406;SDS011;11876;53.438;18.942;2024-02-14T10:05:15;27.50;;;17.55;;
23406;SDS011;11876;53.438;18.942;2024-02-14T10:08:35;26.00;;;17.13;;
23406;SDS011;11876;53.438;18.942;2024-02-14T10:11:55;34.53;;;16.75;;
23406;SDS011;11876;53.438;18.942;2024-02-14T10:15:00;26.33;;;16.17;;
23406;SDS011;11876;53.438;18.942;2024-02-14T10:18:04;23.52;;;15.30;;
23406;SDS011;11876;53.438;18.942;2024-02-14T10:21:14;26.92;;;16.95;;
23406;SDS011;11876;53.438;18.942;2024-02-14T10:24:21;26.33;;;18.73;;
23406;SDS011;11876;53.438;18.942;2024-02-14T10:27:26;30.98;;;19.50;;
23406;SDS011;11876;53.438;18.942;2024-02-14T10:30:33;31.83;;;20.92;;
23406;SDS011;11876;53.438;18.942;2024-02-14T10:33:40;26.67;;;17.50;;
23406;SDS011;11876;53.438;18.942;2024-02-14T10:36:56;26.92;;;18.63;;
23406;SDS011;11876;53.438;18.942;2024-02-14T10:40:04;25.05;;;16.98;;
23406;SDS011;11876;53.438;18.942;2024-02-14T10:43:11;26.95;;;17.27;;
23406;SDS011;11876;53.438;18.942;2024-02-14T10:46:23;23.58;;;17.02;;
23406;SDS011;11876;53.438;18.942;2024-02-14T10:49:34;27.67;;;18.75;;
23406;SDS011;11876;53.438;18.942;2024-02-14T10:52:55;28.50;;;17.45;;
23406;SDS011;11876;53.438;18.942;2024-02-14T10:56:17;32.15;;;17.77;;
23406;SDS011;11876;53.438;18.942;2024-02-14T10:59:37;25.23;;;15.68;;
23406;SDS011;11876;53.438;18.942;2024-02-14T11:02:47;22.73;;;16.15;;
23406;SDS011;11876;53.438;18.942;2024-02-14T11:06:08;24.40;;;16.70;;
23406;SDS011;11876;53.438;18.942;2024-02-14T11:09:14;29.75;;;17.60;;
23406;SDS011;11876;53.438;18.942;2024-02-14T11:12:18;29.88;;;22.00;;
23406;SDS011;11876;53.438;18.942;2024-02-14T11:15:26;22.75;;;18.15;;
23406;SDS011;11876;53.438;18.942;2024-02-14T11:18:34;23.70;;;16.48;;
23406;SDS011;11876;53.438;18.942;2024-02-14T11:24:48;26.52;;;19.58;;
23406;SDS011;11876;53.438;18.942;2024-02-14T11:27:53;25.90;;;18.33;;
23406;SDS011;11876;53.438;18.942;2024-02-14T11:31:01;24.33;;;17.90;;
23406;SDS011;11876;53.438;18.942;2024-02-14T11:34:08;23.40;;;17.23;;
23406;SDS011;11876;53.438;18.942;2024-02-14T11:37:14;31.63;;;18.17;;
23406;SDS011;11876;53.438;18.942;2024-02-14T11:40:23;23.23;;;14.90;;
23406;SDS011;11876;53.438;18.942;2024-02-14T11:43:25;39.05;;;25.70;;
23406;SDS011;11876;53.438;18.942;2024-02-14T11:46:35;27.52;;;19.70;;
23406;SDS011;11876;53.438;18.942;2024-02-14T11:49:38;21.83;;;14.80;;
23406;SDS011;11876;53.438;18.942;2024-02-14T11:52:43;19.25;;;14.20;;
23406;SDS011;11876;53.438;18.942;2024-02-14T11:55:48;21.00;;;15.63;;
23406;SDS011;11876;53.438;18.942;2024-02-14T11:58:55;25.33;;;15.95;;
23406;SDS011;11876;53.438;18.942;2024-02-14T12:02:09;28.35;;;15.45;;
23406;SDS011;11876;53.438;18.942;2024-02-14T12:05:13;30.58;;;17.20;;
23406;SDS011;11876;53.438;18.942;2024-02-14T12:08:20;34.00;;;16.92;;
23406;SDS011;11876;53.438;18.942;2024-02-14T12:11:35;21.92;;;14.77;;
23406;SDS011;11876;53.438;18.942;2024-02-14T12:14:53;26.05;;;16.30;;
23406;SDS011;11876;53.438;18.942;2024-02-14T12:17:57;31.35;;;18.90;;
23406;SDS011;11876;53.438;18.942;2024-02-14T12:21:15;21.75;;;14.30;;
23406;SDS011;11876;53.438;18.942;2024-02-14T12:24:19;30.42;;;16.55;;
23406;SDS011;11876;53.438;18.942;2024-02-14T12:27:31;23.55;;;16.30;;
23406;SDS011;11876;53.438;18.942;2024-02-14T12:30:46;49.80;;;20.60;;
23406;SDS011;11876;53.438;18.942;2024-02-14T12:33:58;19.95;;;13.18;;
23406;SDS011;11876;53.438;18.942;2024-02-14T12:37:03;33.28;;;15.43;;
23406;SDS011;11876;53.438;18.942;2024-02-14T12:43:11;24.83;;;13.10;;
23406;SDS011;11876;53.438;18.942;2024-02-14T12:46:14;17.55;;;12.65;;
23406;SDS011;11876;53.438;18.942;2024-02-14T12:49:17;22.08;;;12.68;;
23406;SDS011;11876;53.438;18.942;2024-02-14T12:52:27;21.55;;;12.02;;
23406;SDS011;11876;53.438;18.942;2024-02-14T12:55:34;19.48;;;11.77;;
23406;SDS011;11876;53.438;18.942;2024-02-14T12:58:41;17.85;;;11.27;;
23406;SDS011;11876;53.438;18.942;2024-02-14T13:01:47;20.75;;;12.82;;
23406;SDS011;11876;53.438;18.942;2024-02-14T13:04:56;14.65;;;11.07;;
23406;SDS011;11876;53.438;18.942;2024-02-14T13:07:59;18.65;;;11.68;;
23406;SDS011;11876;53.438;18.942;2024-02-14T13:11:02;20.85;;;10.73;;
23406;SDS011;11876;53.438;18.942;2024-02-14T13:14:14;16.98;;;10.70;;
23406;SDS011;11876;53.438;18.942;2024-02-14T13:17:18;14.15;;;10.20;;
23406;SDS011;11876;53.438;18.942;2024-02-14T13:20:26;12.85;;;8.93;;
23406;SDS011;11876;53.438;18.942;2024-02-14T13:23:43;16.00;;;9.98;;
23406;SDS011;11876;53.438;18.942;2024-02-14T13:26:45;19.05;;;11.30;;
23406;SDS011;11876;53.438;18.942;2024-02-14T13:29:47;12.52;;;9.43;;
23406;SDS011;11876;53.438;18.942;2024-02-14T13:32:50;12.88;;;9.20;;
23406;SDS011;11876;53.438;18.942;2024-02-14T13:35:53;29.08;;;18.83;;
23406;SDS011;11876;53.438;18.942;2024-02-14T13:38:55;19.25;;;12.90;;
23406;SDS011;11876;53.438;18.942;2024-02-14T13:41:58;16.77;;;15.05;;
23406;SDS011;11876;53.438;18.942;2024-02-14T13:45:02;19.90;;;14.27;;
23406;SDS011;11876;53.438;18.942;2024-02-14T13:48:05;17.90;;;12.10;;
23406;SDS011;11876;53.438;18.942;2024-02-14T13:51:11;24.17;;;16.65;;
23406;SDS011;11876;53.438;18.942;2024-02-14T13:54:14;31.73;;;20.02;;
23406;SDS011;11876;53.438;18.942;2024-02-14T13:57:17;21.20;;;15.73;;
23406;SDS011;11876;53.438;18.942;2024-02-14T14:00:22;19.58;;;14.55;;
23406;SDS011;11876;53.438;18.942;2024-02-14T14:03:37;29.70;;;17.90;;
23406;SDS011;11876;53.438;18.942;2024-02-14T14:06:46;21.20;;;12.77;;
23406;SDS011;11876;53.438;18.942;2024-02-14T14:09:51;19.38;;;11.43;;
23406;SDS011;11876;53.438;18.942;2024-02-14T14:12:55;25.52;;;17.83;;
23406;SDS011;11876;53.438;18.942;2024-02-14T14:16:06;20.02;;;13.30;;
23406;SDS011;11876;53.438;18.942;2024-02-14T14:19:15;17.00;;;11.93;;
23406;SDS011;11876;53.438;18.942;2024-02-14T14:22:28;21.05;;;14.45;;
23406;SDS011;11876;53.438;18.942;2024-02-14T14:25:33;19.88;;;13.27;;
23406;SDS011;11876;53.438;18.942;2024-02-14T14:28:37;21.92;;;10.98;;
23406;SDS011;11876;53.438;18.942;2024-02-14T14:31:39;20.67;;;12.82;;
23406;SDS011;11876;53.438;18.942;2024-02-14T14:34:41;22.90;;;13.70;;
23406;SDS011;11876;53.438;18.942;2024-02-14T14:37:44;19.42;;;12.55;;
23406;SDS011;11876;53.438;18.942;2024-02-14T14:40:47;18.38;;;12.48;;
23406;SDS011;11876;53.438;18.942;2024-02-14T14:43:58;23.77;;;14.25;;
23406;SDS011;11876;53.438;18.942;2024-02-14T14:47:02;34.58;;;20.52;;
23406;SDS011;11876;53.438;18.942;2024-02-14T14:50:08;23.95;;;15.10;;
23406;SDS011;11876;53.438;18.942;2024-02-14T14:53:12;20.27;;;12.32;;
23406;SDS011;11876;53.438;18.942;2024-02-14T14:56:14;58.80;;;34.70;;
23406;SDS011;11876;53.438;18.942;2024-02-14T14:59:17;20.90;;;13.45;;
23406;SDS011;11876;53.438;18.942;2024-02-14T15:02:20;21.15;;;13.75;;
23406;SDS011;11876;53.438;18.942;2024-02-14T15:05:24;27.77;;;15.13;;
23406;SDS011;11876;53.438;18.942;2024-02-14T15:08:27;23.65;;;15.10;;
23406;SDS011;11876;53.438;18.942;2024-02-14T15:11:30;24.73;;;12.88;;
23406;SDS011;11876;53.438;18.942;2024-02-14T15:14:33;34.27;;;19.47;;
23406;SDS011;11876;53.438;18.942;2024-02-14T15:17:36;30.52;;;17.17;;
23406;SDS011;11876;53.438;18.942;2024-02-14T15:20:39;39.80;;;20.63;;
23406;SDS011;11876;53.438;18.942;2024-02-14T15:23:42;23.35;;;12.88;;
23406;SDS011;11876;53.438;18.942;2024-02-14T15:26:45;23.77;;;16.45;;
23406;SDS011;11876;53.438;18.942;2024-02-14T15:29:52;21.13;;;14.45;;
23406;SDS011;11876;53.438;18.942;2024-02-14T15:33:13;22.52;;;15.50;;
23406;SDS011;11876;53.438;18.942;2024-02-14T15:36:25;24.52;;;15.70;;
23406;SDS011;11876;53.438;18.942;2024-02-14T15:39:27;28.38;;;17.98;;
23406;SDS011;11876;53.438;18.942;2024-02-14T15:42:31;29.33;;;19.38;;
23406;SDS011;11876;53.438;18.942;2024-02-14T15:45:38;27.30;;;21.13;;
23406;SDS011;11876;53.438;18.942;2024-02-14T15:48:44;36.38;;;28.67;;
23406;SDS011;11876;53.438;18.942;2024-02-14T15:51:48;26.45;;;16.63;;
23406;SDS011;11876;53.438;18.942;2024-02-14T15:54:56;25.92;;;16.25;;
23406;SDS011;11876;53.438;18.942;2024-02-14T15:58:01;22.70;;;16.17;;
23406;SDS011;11876;53.438;18.942;2024-02-14T16:01:06;27.30;;;17.67;;
23406;SDS011;11876;53.438;18.942;2024-02-14T16:04:10;27.65;;;18.52;;
23406;SDS011;11876;53.438;18.942;2024-02-14T16:07:15;24.42;;;16.35;;
23406;SDS011;11876;53.438;18.942;2024-02-14T16:10:23;27.58;;;16.08;;
23406;SDS011;11876;53.438;18.942;2024-02-14T16:13:28;32.15;;;20.25;;
23406;SDS011;11876;53.438;18.942;2024-02-14T16:16:40;42.83;;;23.63;;
23406;SDS011;11876;53.438;18.942;2024-02-14T16:19:47;32.53;;;20.95;;
23406;SDS011;11876;53.438;18.942;2024-02-14T16:22:52;40.08;;;24.45;;
23406;SDS011;11876;53.438;18.942;2024-02-14T16:26:04;28.63;;;19.13;;
23406;SDS011;11876;53.438;18.942;2024-02-14T16:29:07;27.48;;;18.70;;
23406;SDS011;11876;53.438;18.942;2024-02-14T16:32:14;29.08;;;18.30;;
23406;SDS011;11876;53.438;18.942;2024-02-14T16:35:21;28.70;;;18.25;;
23406;SDS011;11876;53.438;18.942;2024-02-14T16:38:29;25.35;;;17.73;;
23406;SDS011;11876;53.438;18.942;2024-02-14T16:41:36;24.25;;;17.35;;
23406;SDS011;11876;53.438;18.942;2024-02-14T16:44:42;25.08;;;17.38;;
23406;SDS011;11876;53.438;18.942;2024-02-14T16:47:45;28.92;;;17.85;;
23406;SDS011;11876;53.438;18.942;2024-02-14T16:50:48;28.30;;;16.85;;
23406;SDS011;11876;53.438;18.942;2024-02-14T16:53:51;40.67;;;22.17;;
23406;SDS011;11876;53.438;18.942;2024-02-14T16:56:54;35.33;;;20.45;;
23406;SDS011;11876;53.438;18.942;2024-02-14T17:00:08;29.10;;;19.92;;
23406;SDS011;11876;53.438;18.942;2024-02-14T17:03:13;29.27;;;19.25;;
23406;SDS011;11876;53.438;18.942;2024-02-14T17:06:18;30.83;;;21.33;;
23406;SDS011;11876;53.438;18.942;2024-02-14T17:09:21;39.90;;;25.33;;
23406;SDS011;11876;53.438;18.942;2024-02-14T17:12:24;41.03;;;24.45;;
23406;SDS011;11876;53.438;18.942;2024-02-14T17:15:28;49.13;;;32.00;;
23406;SDS011;11876;53.438;18.942;2024-02-14T17:18:40;32.22;;;20.17;;
23406;SDS011;11876;53.438;18.942;2024-02-14T17:21:44;43.17;;;23.65;;
23406;SDS011;11876;53.438;18.942;2024-02-14T17:24:49;24.70;;;16.37;;
23406;SDS011;11876;53.438;18.942;2024-02-14T17:28:08;34.72;;;23.17;;
23406;SDS011;11876;53.438;18.942;2024-02-14T17:31:11;32.90;;;22.00;;
23406;SDS011;11876;53.438;18.942;2024-02-14T17:34:15;47.72;;;26.42;;
23406;SDS011;11876;53.438;18.942;2024-02-14T17:37:18;34.67;;;21.20;;
23406;SDS011;11876;53.438;18.942;2024-02-14T17:40:20;37.53;;;23.50;;
23406;SDS011;11876;53.438;18.942;2024-02-14T17:43:26;84.55;;;44.10;;
23406;SDS011;11876;53.438;18.942;2024-02-14T17:46:30;56.53;;;35.83;;
23406;SDS011;11876;53.438;18.942;2024-02-14T17:49:32;89.43;;;49.47;;
23406;SDS011;11876;53.438;18.942;2024-02-14T17:52:35;54.22;;;33.33;;
23406;SDS011;11876;53.438;18.942;2024-02-14T17:55:39;61.80;;;37.30;;
23406;SDS011;11876;53.438;18.942;2024-02-14T17:58:42;35.35;;;26.02;;
23406;SDS011;11876;53.438;18.942;2024-02-14T18:01:46;76.37;;;47.53;;
23406;SDS011;11876;53.438;18.942;2024-02-14T18:04:48;55.72;;;36.83;;
23406;SDS011;11876;53.438;18.942;2024-02-14T18:07:52;38.65;;;26.75;;
23406;SDS011;11876;53.438;18.942;2024-02-14T18:10:55;42.97;;;25.85;;
23406;SDS011;11876;53.438;18.942;2024-02-14T18:13:57;36.30;;;24.40;;